createdAt,value
2018-06-23T00:00:21.697Z,97805.94
2018-06-23T00:05:16.140Z,97813.73
2018-06-23T00:10:12.332Z,97812.56
2018-06-23T00:15:06.947Z,97802.84
2018-06-23T00:20:01.789Z,97803.06
2018-06-23T00:24:56.330Z,97802.78
2018-06-23T00:29:50.876Z,97798.39
2018-06-23T00:34:45.438Z,97794.60
2018-06-23T00:39:39.982Z,97790.53
2018-06-23T00:44:34.538Z,97786.52
2018-06-23T00:49:29.393Z,97779.47
2018-06-23T00:54:23.863Z,97777.83
2018-06-23T00:59:35.174Z,97779.14
2018-06-23T01:04:29.730Z,97772.67
2018-06-23T01:09:24.347Z,97770.34
2018-06-23T01:14:19.000Z,97773.98
2018-06-23T01:19:13.495Z,97768.66
2018-06-23T01:24:08.132Z,97767.91
2018-06-23T01:29:02.797Z,97766.13
2018-06-23T01:33:57.309Z,97770.33
2018-06-23T01:38:51.921Z,97766.62
2018-06-23T01:43:46.537Z,97760.57
2018-06-23T01:48:41.056Z,97769.91
2018-06-23T01:53:35.502Z,97768.77
2018-06-23T01:58:30.021Z,97768.59
2018-06-23T02:03:24.540Z,97769.51
2018-06-23T02:08:19.121Z,97766.88
2018-06-23T02:13:13.647Z,97763.39
2018-06-23T02:18:13.456Z,97757.41
2018-06-23T02:23:13.189Z,97756.20
2018-06-23T02:28:12.988Z,97751.93
2018-06-23T02:35:15.285Z,97748.53
2018-06-23T02:40:09.979Z,97734.98
2018-06-23T02:45:05.278Z,97736.84
2018-06-23T02:50:00.903Z,97735.00
2018-06-23T02:54:55.627Z,97731.44
2018-06-23T02:59:50.262Z,97734.29
2018-06-23T03:04:44.824Z,97736.40
2018-06-23T03:09:39.418Z,97737.83
2018-06-23T03:14:33.949Z,97740.07
2018-06-23T03:19:28.536Z,97738.37
2018-06-23T03:24:23.085Z,97738.28
2018-06-23T03:29:17.684Z,97736.73
2018-06-23T03:34:12.183Z,97749.88
2018-06-23T03:39:10.256Z,97751.59
2018-06-23T03:44:04.924Z,97754.83
2018-06-23T03:48:59.428Z,97748.21
2018-06-23T03:53:53.952Z,97756.87
2018-06-23T03:58:48.414Z,97759.34
2018-06-23T04:03:42.962Z,97738.00
2018-06-23T04:08:37.522Z,97733.53
2018-06-23T04:13:32.417Z,97736.50
2018-06-23T04:18:26.950Z,97746.02
2018-06-23T04:23:21.465Z,97749.86
2018-06-23T04:28:16.009Z,97748.66
2018-06-23T04:33:10.620Z,97754.47
2018-06-23T04:38:05.182Z,97753.50
2018-06-23T04:42:59.762Z,97753.74
2018-06-23T04:47:54.364Z,97740.62
2018-06-23T04:52:48.880Z,97739.70
2018-06-23T04:57:43.365Z,97737.36
2018-06-23T05:02:37.920Z,97736.69
2018-06-23T05:07:32.442Z,97743.45
2018-06-23T05:12:26.987Z,97752.30
2018-06-23T05:17:22.306Z,97754.97
2018-06-23T05:22:16.806Z,97758.08
2018-06-23T05:27:11.277Z,97753.70
2018-06-23T05:32:05.904Z,97752.42
2018-06-23T05:37:00.551Z,97746.38
2018-06-23T05:41:55.085Z,97739.95
2018-06-23T05:46:49.625Z,97743.66
2018-06-23T05:51:44.110Z,97741.00
2018-06-23T05:56:38.629Z,97749.83
2018-06-23T06:01:33.222Z,97749.06
2018-06-23T06:06:27.826Z,97760.26
2018-06-23T06:11:22.338Z,97770.92
2018-06-23T06:16:16.960Z,97766.18
2018-06-23T06:21:11.564Z,97758.86
2018-06-23T06:26:06.181Z,97767.75
2018-06-23T06:31:00.865Z,97765.59
2018-06-23T06:35:55.394Z,97774.33
2018-06-23T06:40:49.917Z,97777.44
2018-06-23T06:45:44.490Z,97780.74
2018-06-23T06:50:38.960Z,97774.69
2018-06-23T06:55:33.882Z,97775.80
2018-06-23T07:00:28.456Z,97765.88
2018-06-23T07:05:23.003Z,97756.78
2018-06-23T07:10:17.802Z,97767.71
2018-06-23T07:15:15.505Z,97766.95
2018-06-23T07:20:10.395Z,97772.43
2018-06-23T07:25:05.255Z,97778.94
2018-06-23T07:29:59.990Z,97770.66
2018-06-23T07:34:55.387Z,97777.13
2018-06-23T07:39:49.929Z,97776.09
2018-06-23T07:44:44.410Z,97772.90
2018-06-23T07:49:39.037Z,97772.66
2018-06-23T07:54:33.661Z,97771.80
2018-06-23T07:59:28.129Z,97755.82
2018-06-23T08:04:22.889Z,97751.51
2018-06-23T08:09:18.019Z,97751.34
2018-06-23T08:14:13.228Z,97745.19
2018-06-23T08:19:08.521Z,97731.17
2018-06-23T08:24:04.078Z,97729.17
2018-06-23T08:29:00.596Z,97722.80
2018-06-23T08:33:56.233Z,97726.76
2018-06-23T08:38:53.539Z,97720.27
2018-06-23T08:43:50.484Z,97713.72
2018-06-23T08:48:45.827Z,97711.25
2018-06-23T08:53:40.417Z,97713.61
2018-06-23T08:58:35.073Z,97702.09
2018-06-23T09:03:29.714Z,97704.46
2018-06-23T09:08:24.432Z,97706.65
2018-06-23T09:13:19.125Z,97709.64
2018-06-23T09:18:13.770Z,97707.55
2018-06-23T09:23:08.422Z,97713.02
2018-06-23T09:28:03.144Z,97713.59
2018-06-23T09:32:57.758Z,97707.19
2018-06-23T09:37:52.415Z,97698.63
2018-06-23T09:42:46.986Z,97688.23
2018-06-23T09:47:42.606Z,97697.68
2018-06-23T09:52:37.250Z,97697.03
2018-06-23T09:57:31.837Z,97691.98
2018-06-23T10:02:26.517Z,97687.69
2018-06-23T10:07:21.221Z,97697.58
2018-06-23T10:12:15.795Z,97696.78
2018-06-23T10:17:10.566Z,97690.87
2018-06-23T10:22:05.351Z,97688.23
2018-06-23T10:26:59.828Z,97697.75
2018-06-23T10:31:54.450Z,97692.27
2018-06-23T10:36:48.950Z,97678.61
2018-06-23T10:41:43.578Z,97678.35
2018-06-23T10:46:38.365Z,97677.84
2018-06-23T10:51:32.986Z,97675.08
2018-06-23T10:56:27.539Z,97678.30
2018-06-23T11:01:22.225Z,97664.76
2018-06-23T11:06:16.956Z,97666.09
2018-06-23T11:11:11.472Z,97666.89
2018-06-23T11:16:06.257Z,97668.50
2018-06-23T11:21:01.477Z,97671.13
2018-06-23T11:25:56.180Z,97674.23
2018-06-23T11:30:51.300Z,97669.85
2018-06-23T11:35:45.948Z,97670.38
2018-06-23T11:40:40.910Z,97658.53
2018-06-23T11:45:35.426Z,97655.70
2018-06-23T11:50:30.116Z,97647.88
2018-06-23T11:55:24.865Z,97637.98
2018-06-23T12:00:19.527Z,97626.60
2018-06-23T12:05:14.060Z,97613.73
2018-06-23T12:10:09.514Z,97624.47
2018-06-23T12:15:34.056Z,97617.80
2018-06-23T12:20:28.673Z,97607.86
2018-06-23T12:25:23.348Z,97606.78
2018-06-23T12:30:17.939Z,97612.98
2018-06-23T12:35:12.531Z,97603.68
2018-06-23T12:40:07.161Z,97601.81
2018-06-23T12:45:01.706Z,97592.20
2018-06-23T12:49:56.196Z,97588.22
2018-06-23T12:54:50.726Z,97568.17
2018-06-23T12:59:45.243Z,97574.61
2018-06-23T13:04:39.809Z,97573.48
2018-06-23T13:09:34.464Z,97560.90
2018-06-23T13:14:29.298Z,97556.44
2018-06-23T13:19:23.816Z,97553.18
2018-06-23T13:24:18.387Z,97543.75
2018-06-23T13:29:12.867Z,97543.22
2018-06-23T13:34:07.441Z,97549.58
2018-06-23T13:39:02.023Z,97531.20
2018-06-23T13:44:21.294Z,97525.59
2018-06-23T13:49:15.875Z,97523.56
2018-06-23T13:54:10.517Z,97524.03
2018-06-23T13:59:05.303Z,97510.55
2018-06-23T14:03:59.808Z,97512.84
2018-06-23T14:08:54.305Z,97516.50
2018-06-23T14:13:48.904Z,97500.77
2018-06-23T14:20:12.614Z,97499.41
2018-06-23T14:25:07.160Z,97501.59
2018-06-23T14:30:01.973Z,97497.55
2018-06-23T14:34:56.620Z,97486.00
2018-06-23T14:39:51.232Z,97481.27
2018-06-23T14:44:45.759Z,97490.34
2018-06-23T14:49:40.381Z,97486.95
2018-06-23T14:54:35.068Z,97474.52
2018-06-23T14:59:30.012Z,97465.06
2018-06-23T15:04:24.585Z,97460.44
2018-06-23T15:09:35.848Z,97454.61
2018-06-23T15:14:30.439Z,97454.53
2018-06-23T15:19:25.005Z,97455.52
2018-06-23T15:24:19.684Z,97455.87
2018-06-23T15:29:14.308Z,97456.88
2018-06-23T15:34:08.843Z,97460.41
2018-06-23T15:39:03.717Z,97464.91
2018-06-23T15:43:58.367Z,97456.03
2018-06-23T15:48:52.904Z,97463.80
2018-06-23T15:53:47.488Z,97462.00
2018-06-23T15:58:42.066Z,97470.27
2018-06-23T16:03:36.717Z,97468.95
2018-06-23T16:08:31.287Z,97456.97
2018-06-23T16:13:25.857Z,97456.77
2018-06-23T16:18:20.543Z,97451.50
2018-06-23T16:23:15.351Z,97445.26
2018-06-23T16:28:10.108Z,97441.94
2018-06-23T16:33:04.725Z,97438.02
2018-06-23T16:37:59.281Z,97445.31
2018-06-23T16:42:53.885Z,97436.84
2018-06-23T16:47:48.584Z,97437.70
2018-06-23T16:52:43.515Z,97438.17
2018-06-23T16:57:38.286Z,97433.73
2018-06-23T17:02:33.229Z,97433.63
2018-06-23T17:07:27.824Z,97434.71
2018-06-23T17:12:23.011Z,97432.23
2018-06-23T17:17:17.542Z,97435.19
2018-06-23T17:22:12.650Z,97438.39
2018-06-23T17:27:07.398Z,97442.52
2018-06-23T17:32:01.897Z,97440.69
2018-06-23T17:36:56.578Z,97442.43
2018-06-23T17:41:51.404Z,97445.56
2018-06-23T17:46:46.138Z,97445.94
2018-06-23T17:51:40.654Z,97452.12
2018-06-23T17:56:35.374Z,97447.41
2018-06-23T18:01:30.047Z,97460.81
2018-06-23T18:06:24.713Z,97462.80
2018-06-23T18:11:19.466Z,97461.25
2018-06-23T18:16:14.301Z,97464.59
2018-06-23T18:21:08.961Z,97460.92
2018-06-23T18:26:03.647Z,97459.84
2018-06-23T18:30:58.085Z,97452.14
2018-06-23T18:35:52.722Z,97453.53
2018-06-23T18:40:47.232Z,97455.68
2018-06-23T18:45:41.936Z,97455.73
2018-06-23T18:50:36.439Z,97470.63
2018-06-23T18:55:31.025Z,97455.55
2018-06-23T19:00:25.658Z,97463.26
2018-06-23T19:05:20.357Z,97475.95
2018-06-23T19:10:15.053Z,97487.58
2018-06-23T19:15:09.706Z,97484.48
2018-06-23T19:20:05.133Z,97489.41
2018-06-23T19:24:59.794Z,97501.31
2018-06-23T19:29:54.516Z,97495.05
2018-06-23T19:34:49.138Z,97499.29
2018-06-23T19:39:43.764Z,97510.36
2018-06-23T19:44:38.456Z,97514.08
2018-06-23T19:49:33.010Z,97514.41
2018-06-23T19:54:27.589Z,97527.23
2018-06-23T19:59:22.286Z,97526.67
2018-06-23T20:04:16.766Z,97529.55
2018-06-23T20:09:11.333Z,97531.81
2018-06-23T20:14:06.308Z,97532.86
2018-06-23T20:19:00.961Z,97526.70
2018-06-23T20:23:55.499Z,97531.98
2018-06-23T20:28:50.064Z,97533.66
2018-06-23T20:33:44.652Z,97534.26
2018-06-23T20:38:39.241Z,97547.83
2018-06-23T20:43:33.861Z,97538.97
2018-06-23T20:48:28.434Z,97543.42
2018-06-23T20:53:23.144Z,97548.52
2018-06-23T20:58:17.870Z,97555.63
2018-06-23T21:03:12.386Z,97558.25
2018-06-23T21:08:06.993Z,97561.91
2018-06-23T21:13:01.930Z,97559.55
2018-06-23T21:17:56.589Z,97564.84
2018-06-23T21:22:51.344Z,97557.23
2018-06-23T21:27:45.837Z,97560.08
2018-06-23T21:32:40.332Z,97558.47
2018-06-23T21:37:36.197Z,97555.11
2018-06-23T21:42:30.785Z,97558.02
2018-06-23T21:47:25.568Z,97548.48
2018-06-23T21:52:20.086Z,97551.27
2018-06-23T21:57:14.603Z,97551.02
2018-06-23T22:02:09.213Z,97550.14
2018-06-23T22:07:03.874Z,97546.05
2018-06-23T22:11:58.507Z,97550.00
2018-06-23T22:16:53.086Z,97551.10
2018-06-23T22:21:47.826Z,97548.93
2018-06-23T22:26:42.428Z,97555.33
2018-06-23T22:31:36.642Z,97551.58
2018-06-23T22:36:31.236Z,97552.50
2018-06-23T22:41:25.939Z,97549.98
2018-06-23T22:46:20.439Z,97544.15
2018-06-23T22:51:14.986Z,97538.03
2018-06-23T22:56:09.588Z,97534.51
2018-06-23T23:01:04.120Z,97534.98
2018-06-23T23:05:58.668Z,97541.28
2018-06-23T23:10:52.888Z,97539.33
2018-06-23T23:15:47.424Z,97531.35
2018-06-23T23:20:41.995Z,97540.22
2018-06-23T23:25:36.598Z,97536.05
2018-06-23T23:30:31.081Z,97533.81
2018-06-23T23:35:25.653Z,97535.00
2018-06-23T23:40:20.228Z,97532.96
2018-06-23T23:45:14.857Z,97533.59
2018-06-23T23:50:09.459Z,97531.46
2018-06-23T23:55:04.016Z,97532.25
2018-06-23T23:59:58.693Z,97530.20
